sensor_id;sensor_type;location;lat;lon;timestamp;P1;durP1;ratioP1;P2;durP2;ratioP2
55090;SDS011;40985;53.180;5.800;2023-10-19T00:00:13;22.95;;;17.45;;
55090;SDS011;40985;53.180;5.800;2023-10-19T00:02:46;24.88;;;17.42;;
55090;SDS011;40985;53.180;5.800;2023-10-19T00:05:17;25.77;;;18.52;;
55090;SDS011;40985;53.180;5.800;2023-10-19T00:07:45;23.38;;;18.30;;
55090;SDS011;40985;53.180;5.800;2023-10-19T00:10:11;28.70;;;18.92;;
55090;SDS011;40985;53.180;5.800;2023-10-19T00:12:41;28.23;;;19.73;;
55090;SDS011;40985;53.180;5.800;2023-10-19T00:15:09;26.80;;;19.30;;
55090;SDS011;40985;53.180;5.800;2023-10-19T00:17:36;29.38;;;20.42;;
55090;SDS011;40985;53.180;5.800;2023-10-19T00:20:05;24.60;;;19.48;;
55090;SDS011;40985;53.180;5.800;2023-10-19T00:22:50;33.78;;;22.00;;
55090;SDS011;40985;53.180;5.800;2023-10-19T00:25:17;29.13;;;20.63;;
55090;SDS011;40985;53.180;5.800;2023-10-19T00:27:43;30.05;;;22.42;;
55090;SDS011;40985;53.180;5.800;2023-10-19T00:30:10;32.17;;;22.15;;
55090;SDS011;40985;53.180;5.800;2023-10-19T00:32:36;28.20;;;21.02;;
55090;SDS011;40985;53.180;5.800;2023-10-19T00:35:04;30.85;;;22.27;;
55090;SDS011;40985;53.180;5.800;2023-10-19T00:37:46;33.15;;;22.58;;
55090;SDS011;40985;53.180;5.800;2023-10-19T00:40:13;31.77;;;22.20;;
55090;SDS011;40985;53.180;5.800;2023-10-19T00:42:57;33.92;;;23.58;;
55090;SDS011;40985;53.180;5.800;2023-10-19T00:45:23;35.92;;;23.92;;
55090;SDS011;40985;53.180;5.800;2023-10-19T00:47:51;33.58;;;24.02;;
55090;SDS011;40985;53.180;5.800;2023-10-19T00:50:18;36.25;;;25.38;;
55090;SDS011;40985;53.180;5.800;2023-10-19T00:52:47;34.45;;;23.63;;
55090;SDS011;40985;53.180;5.800;2023-10-19T00:55:17;36.08;;;25.00;;
55090;SDS011;40985;53.180;5.800;2023-10-19T00:57:45;31.85;;;24.60;;
55090;SDS011;40985;53.180;5.800;2023-10-19T01:00:13;36.03;;;24.92;;
55090;SDS011;40985;53.180;5.800;2023-10-19T01:02:56;35.63;;;24.45;;
55090;SDS011;40985;53.180;5.800;2023-10-19T01:05:25;36.45;;;24.88;;
55090;SDS011;40985;53.180;5.800;2023-10-19T01:07:57;37.80;;;26.15;;
55090;SDS011;40985;53.180;5.800;2023-10-19T01:10:27;33.85;;;24.65;;
55090;SDS011;40985;53.180;5.800;2023-10-19T01:12:53;36.35;;;25.88;;
55090;SDS011;40985;53.180;5.800;2023-10-19T01:15:19;35.30;;;25.42;;
55090;SDS011;40985;53.180;5.800;2023-10-19T01:17:55;41.30;;;25.77;;
55090;SDS011;40985;53.180;5.800;2023-10-19T01:20:23;35.05;;;25.08;;
55090;SDS011;40985;53.180;5.800;2023-10-19T01:23:03;35.78;;;25.73;;
55090;SDS011;40985;53.180;5.800;2023-10-19T01:25:45;36.65;;;25.75;;
55090;SDS011;40985;53.180;5.800;2023-10-19T01:30:53;40.40;;;26.63;;
55090;SDS011;40985;53.180;5.800;2023-10-19T01:33:20;42.53;;;27.30;;
55090;SDS011;40985;53.180;5.800;2023-10-19T01:35:48;38.40;;;26.33;;
55090;SDS011;40985;53.180;5.800;2023-10-19T01:38:32;41.58;;;26.83;;
55090;SDS011;40985;53.180;5.800;2023-10-19T01:41:02;37.17;;;27.17;;
55090;SDS011;40985;53.180;5.800;2023-10-19T01:43:42;35.50;;;25.75;;
55090;SDS011;40985;53.180;5.800;2023-10-19T01:46:09;40.88;;;27.23;;
55090;SDS011;40985;53.180;5.800;2023-10-19T01:51:08;43.63;;;27.58;;
55090;SDS011;40985;53.180;5.800;2023-10-19T01:53:36;41.55;;;27.42;;
55090;SDS011;40985;53.180;5.800;2023-10-19T01:56:05;40.40;;;26.90;;
55090;SDS011;40985;53.180;5.800;2023-10-19T01:58:35;42.97;;;26.92;;
55090;SDS011;40985;53.180;5.800;2023-10-19T02:01:02;43.42;;;27.30;;
55090;SDS011;40985;53.180;5.800;2023-10-19T02:03:33;39.93;;;25.80;;
55090;SDS011;40985;53.180;5.800;2023-10-19T02:06:01;42.35;;;27.33;;
55090;SDS011;40985;53.180;5.800;2023-10-19T02:08:36;45.80;;;26.70;;
55090;SDS011;40985;53.180;5.800;2023-10-19T02:11:04;40.42;;;25.67;;
55090;SDS011;40985;53.180;5.800;2023-10-19T02:13:42;45.33;;;27.00;;
55090;SDS011;40985;53.180;5.800;2023-10-19T02:16:10;39.38;;;25.00;;
55090;SDS011;40985;53.180;5.800;2023-10-19T02:18:36;38.55;;;24.40;;
55090;SDS011;40985;53.180;5.800;2023-10-19T02:21:03;37.65;;;23.85;;
55090;SDS011;40985;53.180;5.800;2023-10-19T02:23:32;34.50;;;23.33;;
55090;SDS011;40985;53.180;5.800;2023-10-19T02:26:01;32.70;;;21.50;;
55090;SDS011;40985;53.180;5.800;2023-10-19T02:28:28;32.42;;;20.77;;
55090;SDS011;40985;53.180;5.800;2023-10-19T02:30:57;27.63;;;20.20;;
55090;SDS011;40985;53.180;5.800;2023-10-19T02:33:35;29.13;;;20.25;;
55090;SDS011;40985;53.180;5.800;2023-10-19T02:36:01;36.30;;;21.30;;
55090;SDS011;40985;53.180;5.800;2023-10-19T02:38:28;29.50;;;20.02;;
55090;SDS011;40985;53.180;5.800;2023-10-19T02:40:55;31.23;;;20.52;;
55090;SDS011;40985;53.180;5.800;2023-10-19T02:43:21;27.00;;;18.55;;
55090;SDS011;40985;53.180;5.800;2023-10-19T02:45:49;28.15;;;18.98;;
55090;SDS011;40985;53.180;5.800;2023-10-19T02:48:16;23.85;;;16.63;;
55090;SDS011;40985;53.180;5.800;2023-10-19T02:50:42;26.42;;;17.42;;
55090;SDS011;40985;53.180;5.800;2023-10-19T02:53:07;31.13;;;19.08;;
55090;SDS011;40985;53.180;5.800;2023-10-19T02:55:37;26.20;;;17.85;;
55090;SDS011;40985;53.180;5.800;2023-10-19T02:58:05;27.02;;;17.73;;
55090;SDS011;40985;53.180;5.800;2023-10-19T03:00:31;25.35;;;16.33;;
55090;SDS011;40985;53.180;5.800;2023-10-19T03:03:00;23.67;;;15.45;;
55090;SDS011;40985;53.180;5.800;2023-10-19T03:05:26;22.58;;;15.75;;
55090;SDS011;40985;53.180;5.800;2023-10-19T03:07:52;20.05;;;14.77;;
55090;SDS011;40985;53.180;5.800;2023-10-19T03:10:18;19.70;;;14.73;;
55090;SDS011;40985;53.180;5.800;2023-10-19T03:12:59;17.75;;;14.18;;
55090;SDS011;40985;53.180;5.800;2023-10-19T03:15:26;21.65;;;14.65;;
55090;SDS011;40985;53.180;5.800;2023-10-19T03:17:55;21.45;;;14.52;;
55090;SDS011;40985;53.180;5.800;2023-10-19T03:20:21;21.50;;;14.40;;
55090;SDS011;40985;53.180;5.800;2023-10-19T03:22:50;21.20;;;14.60;;
55090;SDS011;40985;53.180;5.800;2023-10-19T03:25:16;18.98;;;13.50;;
55090;SDS011;40985;53.180;5.800;2023-10-19T03:28:00;19.23;;;13.10;;
55090;SDS011;40985;53.180;5.800;2023-10-19T03:30:36;16.40;;;12.70;;
55090;SDS011;40985;53.180;5.800;2023-10-19T03:33:08;16.15;;;12.15;;
55090;SDS011;40985;53.180;5.800;2023-10-19T03:35:37;16.88;;;11.68;;
55090;SDS011;40985;53.180;5.800;2023-10-19T03:38:04;14.63;;;11.27;;
55090;SDS011;40985;53.180;5.800;2023-10-19T03:40:44;16.02;;;11.30;;
55090;SDS011;40985;53.180;5.800;2023-10-19T03:43:20;13.48;;;10.15;;
55090;SDS011;40985;53.180;5.800;2023-10-19T03:45:51;14.88;;;10.57;;
55090;SDS011;40985;53.180;5.800;2023-10-19T03:48:21;16.67;;;10.35;;
55090;SDS011;40985;53.180;5.800;2023-10-19T03:50:52;15.32;;;10.23;;
55090;SDS011;40985;53.180;5.800;2023-10-19T03:53:20;15.80;;;9.95;;
55090;SDS011;40985;53.180;5.800;2023-10-19T03:55:47;9.70;;;8.05;;
55090;SDS011;40985;53.180;5.800;2023-10-19T03:58:15;12.48;;;8.93;;
55090;SDS011;40985;53.180;5.800;2023-10-19T04:00:41;12.75;;;8.85;;
55090;SDS011;40985;53.180;5.800;2023-10-19T04:03:07;13.95;;;9.50;;
55090;SDS011;40985;53.180;5.800;2023-10-19T04:05:33;10.57;;;8.65;;
55090;SDS011;40985;53.180;5.800;2023-10-19T04:08:04;11.25;;;9.43;;
55090;SDS011;40985;53.180;5.800;2023-10-19T04:10:38;13.68;;;10.15;;
55090;SDS011;40985;53.180;5.800;2023-10-19T04:13:04;13.38;;;9.40;;
55090;SDS011;40985;53.180;5.800;2023-10-19T04:15:34;14.13;;;10.30;;
55090;SDS011;40985;53.180;5.800;2023-10-19T04:18:01;13.27;;;9.60;;
55090;SDS011;40985;53.180;5.800;2023-10-19T04:20:34;16.42;;;10.90;;
55090;SDS011;40985;53.180;5.800;2023-10-19T04:23:18;14.18;;;10.40;;
55090;SDS011;40985;53.180;5.800;2023-10-19T04:25:46;13.40;;;10.43;;
55090;SDS011;40985;53.180;5.800;2023-10-19T04:28:12;16.90;;;11.48;;
55090;SDS011;40985;53.180;5.800;2023-10-19T04:33:21;16.10;;;10.98;;
55090;SDS011;40985;53.180;5.800;2023-10-19T04:35:50;13.13;;;10.98;;
55090;SDS011;40985;53.180;5.800;2023-10-19T04:38:20;16.05;;;11.77;;
55090;SDS011;40985;53.180;5.800;2023-10-19T04:40:49;19.77;;;12.00;;
55090;SDS011;40985;53.180;5.800;2023-10-19T04:43:15;21.05;;;12.30;;
55090;SDS011;40985;53.180;5.800;2023-10-19T04:45:41;20.33;;;12.07;;
55090;SDS011;40985;53.180;5.800;2023-10-19T04:48:09;21.63;;;13.02;;
55090;SDS011;40985;53.180;5.800;2023-10-19T04:50:35;20.42;;;12.98;;
55090;SDS011;40985;53.180;5.800;2023-10-19T04:53:01;18.88;;;12.68;;
55090;SDS011;40985;53.180;5.800;2023-10-19T04:55:28;27.05;;;13.27;;
55090;SDS011;40985;53.180;5.800;2023-10-19T04:57:55;19.17;;;12.63;;
55090;SDS011;40985;53.180;5.800;2023-10-19T05:00:21;17.95;;;11.52;;
55090;SDS011;40985;53.180;5.800;2023-10-19T05:02:49;17.90;;;11.75;;
55090;SDS011;40985;53.180;5.800;2023-10-19T05:05:17;13.73;;;10.50;;
55090;SDS011;40985;53.180;5.800;2023-10-19T05:07:43;19.80;;;12.25;;
55090;SDS011;40985;53.180;5.800;2023-10-19T05:10:09;20.80;;;12.07;;
55090;SDS011;40985;53.180;5.800;2023-10-19T05:12:36;17.23;;;11.13;;
55090;SDS011;40985;53.180;5.800;2023-10-19T05:15:02;14.27;;;9.82;;
55090;SDS011;40985;53.180;5.800;2023-10-19T05:17:28;14.32;;;10.13;;
55090;SDS011;40985;53.180;5.800;2023-10-19T05:19:53;16.40;;;11.30;;
55090;SDS011;40985;53.180;5.800;2023-10-19T05:22:19;15.38;;;11.07;;
55090;SDS011;40985;53.180;5.800;2023-10-19T05:24:46;15.13;;;10.40;;
55090;SDS011;40985;53.180;5.800;2023-10-19T05:27:12;14.82;;;10.85;;
55090;SDS011;40985;53.180;5.800;2023-10-19T05:29:38;17.35;;;11.15;;
55090;SDS011;40985;53.180;5.800;2023-10-19T05:32:05;18.05;;;11.43;;
55090;SDS011;40985;53.180;5.800;2023-10-19T05:34:31;12.80;;;9.82;;
55090;SDS011;40985;53.180;5.800;2023-10-19T05:37:00;12.93;;;10.65;;
55090;SDS011;40985;53.180;5.800;2023-10-19T05:39:30;11.65;;;9.80;;
55090;SDS011;40985;53.180;5.800;2023-10-19T05:41:58;22.90;;;12.23;;
55090;SDS011;40985;53.180;5.800;2023-10-19T05:44:27;13.15;;;10.70;;
55090;SDS011;40985;53.180;5.800;2023-10-19T05:46:56;13.23;;;10.02;;
55090;SDS011;40985;53.180;5.800;2023-10-19T05:49:23;12.52;;;9.90;;
55090;SDS011;40985;53.180;5.800;2023-10-19T05:51:49;12.63;;;9.75;;
55090;SDS011;40985;53.180;5.800;2023-10-19T05:54:15;18.05;;;10.40;;
55090;SDS011;40985;53.180;5.800;2023-10-19T05:56:42;13.07;;;9.60;;
55090;SDS011;40985;53.180;5.800;2023-10-19T05:59:08;12.38;;;9.73;;
55090;SDS011;40985;53.180;5.800;2023-10-19T06:01:35;10.93;;;9.57;;
55090;SDS011;40985;53.180;5.800;2023-10-19T06:04:02;13.52;;;9.68;;
55090;SDS011;40985;53.180;5.800;2023-10-19T06:06:28;16.95;;;10.82;;
55090;SDS011;40985;53.180;5.800;2023-10-19T06:08:54;10.30;;;9.27;;
55090;SDS011;40985;53.180;5.800;2023-10-19T06:11:22;13.43;;;9.60;;
55090;SDS011;40985;53.180;5.800;2023-10-19T06:13:48;15.95;;;9.55;;
55090;SDS011;40985;53.180;5.800;2023-10-19T06:16:14;12.55;;;9.43;;
55090;SDS011;40985;53.180;5.800;2023-10-19T06:18:40;11.82;;;9.45;;
55090;SDS011;40985;53.180;5.800;2023-10-19T06:21:05;14.57;;;10.48;;
55090;SDS011;40985;53.180;5.800;2023-10-19T06:23:31;10.90;;;9.00;;
55090;SDS011;40985;53.180;5.800;2023-10-19T06:25:57;12.00;;;10.38;;
55090;SDS011;40985;53.180;5.800;2023-10-19T06:28:23;17.67;;;12.45;;
55090;SDS011;40985;53.180;5.800;2023-10-19T06:30:48;15.52;;;11.18;;
55090;SDS011;40985;53.180;5.800;2023-10-19T06:33:15;11.38;;;10.05;;
55090;SDS011;40985;53.180;5.800;2023-10-19T06:35:41;12.95;;;10.85;;
55090;SDS011;40985;53.180;5.800;2023-10-19T06:38:07;15.48;;;11.25;;
55090;SDS011;40985;53.180;5.800;2023-10-19T06:40:34;12.07;;;10.02;;
55090;SDS011;40985;53.180;5.800;2023-10-19T06:43:03;13.18;;;10.07;;
55090;SDS011;40985;53.180;5.800;2023-10-19T06:45:30;13.88;;;10.63;;
55090;SDS011;40985;53.180;5.800;2023-10-19T06:47:57;13.30;;;11.57;;
55090;SDS011;40985;53.180;5.800;2023-10-19T06:50:25;11.85;;;10.65;;
55090;SDS011;40985;53.180;5.800;2023-10-19T06:52:51;12.98;;;10.50;;
55090;SDS011;40985;53.180;5.800;2023-10-19T06:55:19;13.65;;;11.20;;
55090;SDS011;40985;53.180;5.800;2023-10-19T06:57:49;15.10;;;11.07;;
55090;SDS011;40985;53.180;5.800;2023-10-19T07:00:16;12.43;;;10.32;;
55090;SDS011;40985;53.180;5.800;2023-10-19T07:02:54;11.25;;;10.05;;
55090;SDS011;40985;53.180;5.800;2023-10-19T07:05:21;12.55;;;11.30;;
55090;SDS011;40985;53.180;5.800;2023-10-19T07:07:49;12.23;;;10.40;;
55090;SDS011;40985;53.180;5.800;2023-10-19T07:10:17;11.43;;;10.25;;
55090;SDS011;40985;53.180;5.800;2023-10-19T07:12:44;11.18;;;10.07;;
55090;SDS011;40985;53.180;5.800;2023-10-19T07:15:13;14.07;;;10.73;;
55090;SDS011;40985;53.180;5.800;2023-10-19T07:17:42;11.52;;;10.38;;
55090;SDS011;40985;53.180;5.800;2023-10-19T07:20:09;10.90;;;9.80;;
55090;SDS011;40985;53.180;5.800;2023-10-19T07:22:55;11.65;;;10.55;;
55090;SDS011;40985;53.180;5.800;2023-10-19T07:25:22;10.77;;;9.75;;
55090;SDS011;40985;53.180;5.800;2023-10-19T07:27:51;21.00;;;11.23;;
55090;SDS011;40985;53.180;5.800;2023-10-19T07:30:17;11.68;;;10.18;;
55090;SDS011;40985;53.180;5.800;2023-10-19T07:32:47;12.60;;;9.80;;
55090;SDS011;40985;53.180;5.800;2023-10-19T07:35:17;12.98;;;10.65;;
55090;SDS011;40985;53.180;5.800;2023-10-19T07:37:44;14.15;;;11.10;;
55090;SDS011;40985;53.180;5.800;2023-10-19T07:40:10;12.48;;;11.27;;
55090;SDS011;40985;53.180;5.800;2023-10-19T07:42:39;13.02;;;11.52;;
55090;SDS011;40985;53.180;5.800;2023-10-19T07:45:05;17.42;;;13.20;;
55090;SDS011;40985;53.180;5.800;2023-10-19T07:47:37;16.75;;;14.63;;
55090;SDS011;40985;53.180;5.800;2023-10-19T07:50:05;20.13;;;17.30;;
55090;SDS011;40985;53.180;5.800;2023-10-19T07:52:47;20.40;;;18.05;;
55090;SDS011;40985;53.180;5.800;2023-10-19T07:55:21;21.88;;;19.05;;
55090;SDS011;40985;53.180;5.800;2023-10-19T07:57:50;21.98;;;19.60;;
55090;SDS011;40985;53.180;5.800;2023-10-19T08:00:16;19.20;;;17.30;;
55090;SDS011;40985;53.180;5.800;2023-10-19T08:02:46;20.02;;;18.02;;
55090;SDS011;40985;53.180;5.800;2023-10-19T08:05:16;21.30;;;18.70;;
55090;SDS011;40985;53.180;5.800;2023-10-19T08:07:45;20.38;;;17.92;;
55090;SDS011;40985;53.180;5.800;2023-10-19T08:10:15;18.95;;;16.58;;
55090;SDS011;40985;53.180;5.800;2023-10-19T08:12:42;18.02;;;16.10;;
55090;SDS011;40985;53.180;5.800;2023-10-19T08:15:10;28.95;;;17.67;;
55090;SDS011;40985;53.180;5.800;2023-10-19T08:17:39;21.48;;;17.42;;
55090;SDS011;40985;53.180;5.800;2023-10-19T08:20:09;17.58;;;15.77;;
55090;SDS011;40985;53.180;5.800;2023-10-19T08:22:48;21.55;;;17.33;;
55090;SDS011;40985;53.180;5.800;2023-10-19T08:25:16;21.60;;;18.05;;
55090;SDS011;40985;53.180;5.800;2023-10-19T08:27:42;19.38;;;17.38;;
55090;SDS011;40985;53.180;5.800;2023-10-19T08:30:13;18.33;;;16.45;;
55090;SDS011;40985;53.180;5.800;2023-10-19T08:32:40;23.65;;;17.65;;
55090;SDS011;40985;53.180;5.800;2023-10-19T08:35:07;24.48;;;18.85;;
55090;SDS011;40985;53.180;5.800;2023-10-19T08:37:39;20.65;;;18.10;;
55090;SDS011;40985;53.180;5.800;2023-10-19T08:40:06;20.83;;;18.45;;
55090;SDS011;40985;53.180;5.800;2023-10-19T08:42:39;20.17;;;18.15;;
55090;SDS011;40985;53.180;5.800;2023-10-19T08:45:06;22.58;;;19.40;;
55090;SDS011;40985;53.180;5.800;2023-10-19T08:47:34;28.63;;;19.73;;
55090;SDS011;40985;53.180;5.800;2023-10-19T08:50:02;22.58;;;19.48;;
55090;SDS011;40985;53.180;5.800;2023-10-19T08:52:30;27.40;;;19.98;;
55090;SDS011;40985;53.180;5.800;2023-10-19T08:54:57;21.73;;;17.42;;
55090;SDS011;40985;53.180;5.800;2023-10-19T08:57:23;21.63;;;17.00;;
55090;SDS011;40985;53.180;5.800;2023-10-19T08:59:49;26.05;;;17.98;;
55090;SDS011;40985;53.180;5.800;2023-10-19T09:02:14;18.85;;;16.73;;
55090;SDS011;40985;53.180;5.800;2023-10-19T09:04:44;29.33;;;18.55;;
55090;SDS011;40985;53.180;5.800;2023-10-19T09:07:13;22.38;;;17.52;;
55090;SDS011;40985;53.180;5.800;2023-10-19T09:09:41;22.52;;;17.52;;
55090;SDS011;40985;53.180;5.800;2023-10-19T09:12:07;19.30;;;16.75;;
55090;SDS011;40985;53.180;5.800;2023-10-19T09:14:34;22.05;;;15.45;;
55090;SDS011;40985;53.180;5.800;2023-10-19T09:17:08;21.52;;;15.38;;
55090;SDS011;40985;53.180;5.800;2023-10-19T09:19:39;22.70;;;15.52;;
55090;SDS011;40985;53.180;5.800;2023-10-19T09:22:07;20.65;;;16.25;;
55090;SDS011;40985;53.180;5.800;2023-10-19T09:24:41;19.60;;;17.55;;
55090;SDS011;40985;53.180;5.800;2023-10-19T09:27:08;23.65;;;17.13;;
55090;SDS011;40985;53.180;5.800;2023-10-19T09:29:33;22.15;;;17.33;;
55090;SDS011;40985;53.180;5.800;2023-10-19T09:31:59;19.52;;;17.38;;
55090;SDS011;40985;53.180;5.800;2023-10-19T09:34:29;21.15;;;17.00;;
55090;SDS011;40985;53.180;5.800;2023-10-19T09:37:01;23.77;;;17.17;;
55090;SDS011;40985;53.180;5.800;2023-10-19T09:39:31;22.02;;;15.25;;
55090;SDS011;40985;53.180;5.800;2023-10-19T09:42:07;20.02;;;15.43;;
55090;SDS011;40985;53.180;5.800;2023-10-19T09:44:45;21.17;;;15.60;;
55090;SDS011;40985;53.180;5.800;2023-10-19T09:47:26;18.95;;;14.23;;
55090;SDS011;40985;53.180;5.800;2023-10-19T09:49:58;17.83;;;13.70;;
55090;SDS011;40985;53.180;5.800;2023-10-19T09:52:23;19.15;;;14.10;;
55090;SDS011;40985;53.180;5.800;2023-10-19T09:54:57;20.90;;;15.45;;
55090;SDS011;40985;53.180;5.800;2023-10-19T09:57:30;24.17;;;17.85;;
55090;SDS011;40985;53.180;5.800;2023-10-19T10:00:03;19.45;;;17.42;;
55090;SDS011;40985;53.180;5.800;2023-10-19T10:02:53;27.15;;;20.83;;
55090;SDS011;40985;53.180;5.800;2023-10-19T10:10:48;26.85;;;19.35;;
55090;SDS011;40985;53.180;5.800;2023-10-19T10:15:51;27.60;;;18.98;;
55090;SDS011;40985;53.180;5.800;2023-10-19T10:18:19;29.30;;;18.17;;
55090;SDS011;40985;53.180;5.800;2023-10-19T10:20:45;24.75;;;17.95;;
55090;SDS011;40985;53.180;5.800;2023-10-19T10:25:44;19.10;;;15.02;;
55090;SDS011;40985;53.180;5.800;2023-10-19T10:28:14;20.40;;;17.23;;
55090;SDS011;40985;53.180;5.800;2023-10-19T10:33:41;23.38;;;19.70;;
55090;SDS011;40985;53.180;5.800;2023-10-19T10:36:12;20.83;;;18.60;;
55090;SDS011;40985;53.180;5.800;2023-10-19T10:38:48;24.35;;;21.30;;
55090;SDS011;40985;53.180;5.800;2023-10-19T10:41:21;23.70;;;20.25;;
55090;SDS011;40985;53.180;5.800;2023-10-19T10:43:53;25.23;;;20.75;;
55090;SDS011;40985;53.180;5.800;2023-10-19T10:46:24;24.08;;;21.60;;
55090;SDS011;40985;53.180;5.800;2023-10-19T10:48:52;25.17;;;22.48;;
55090;SDS011;40985;53.180;5.800;2023-10-19T10:51:19;27.95;;;21.95;;
55090;SDS011;40985;53.180;5.800;2023-10-19T10:53:48;23.20;;;20.80;;
55090;SDS011;40985;53.180;5.800;2023-10-19T10:56:16;21.48;;;19.20;;
55090;SDS011;40985;53.180;5.800;2023-10-19T10:58:42;21.45;;;19.27;;
55090;SDS011;40985;53.180;5.800;2023-10-19T11:01:08;22.83;;;20.63;;
55090;SDS011;40985;53.180;5.800;2023-10-19T11:03:35;22.70;;;20.58;;
55090;SDS011;40985;53.180;5.800;2023-10-19T11:06:05;24.63;;;22.23;;
55090;SDS011;40985;53.180;5.800;2023-10-19T11:08:33;27.15;;;24.40;;
55090;SDS011;40985;53.180;5.800;2023-10-19T11:11:04;27.02;;;24.33;;
55090;SDS011;40985;53.180;5.800;2023-10-19T11:13:31;25.88;;;23.17;;
55090;SDS011;40985;53.180;5.800;2023-10-19T11:16:02;24.30;;;21.83;;
55090;SDS011;40985;53.180;5.800;2023-10-19T11:18:40;23.73;;;21.33;;
55090;SDS011;40985;53.180;5.800;2023-10-19T11:21:11;25.17;;;22.48;;
55090;SDS011;40985;53.180;5.800;2023-10-19T11:23:41;27.40;;;24.48;;
55090;SDS011;40985;53.180;5.800;2023-10-19T11:26:09;26.60;;;23.98;;
55090;SDS011;40985;53.180;5.800;2023-10-19T11:28:36;26.92;;;22.35;;
55090;SDS011;40985;53.180;5.800;2023-10-19T11:31:11;21.23;;;18.92;;
55090;SDS011;40985;53.180;5.800;2023-10-19T11:33:39;20.45;;;17.23;;
55090;SDS011;40985;53.180;5.800;2023-10-19T11:36:06;18.38;;;14.50;;
55090;SDS011;40985;53.180;5.800;2023-10-19T11:38:32;17.42;;;14.88;;
55090;SDS011;40985;53.180;5.800;2023-10-19T11:40:58;24.48;;;21.88;;
55090;SDS011;40985;53.180;5.800;2023-10-19T11:43:23;23.90;;;21.30;;
55090;SDS011;40985;53.180;5.800;2023-10-19T11:45:49;24.38;;;20.23;;
55090;SDS011;40985;53.180;5.800;2023-10-19T11:48:15;26.00;;;21.67;;
55090;SDS011;40985;53.180;5.800;2023-10-19T11:50:41;26.02;;;22.67;;
55090;SDS011;40985;53.180;5.800;2023-10-19T11:53:06;24.42;;;21.88;;
55090;SDS011;40985;53.180;5.800;2023-10-19T11:55:35;23.25;;;20.08;;
55090;SDS011;40985;53.180;5.800;2023-10-19T11:58:00;26.55;;;20.08;;
55090;SDS011;40985;53.180;5.800;2023-10-19T12:00:26;23.10;;;17.77;;
55090;SDS011;40985;53.180;5.800;2023-10-19T12:02:59;20.25;;;17.30;;
55090;SDS011;40985;53.180;5.800;2023-10-19T12:05:25;17.65;;;15.77;;
55090;SDS011;40985;53.180;5.800;2023-10-19T12:07:50;16.65;;;14.38;;
55090;SDS011;40985;53.180;5.800;2023-10-19T12:10:17;14.85;;;13.13;;
55090;SDS011;40985;53.180;5.800;2023-10-19T12:12:45;13.80;;;11.32;;
55090;SDS011;40985;53.180;5.800;2023-10-19T12:15:11;12.50;;;11.27;;
55090;SDS011;40985;53.180;5.800;2023-10-19T12:17:37;12.40;;;11.05;;
55090;SDS011;40985;53.180;5.800;2023-10-19T12:20:03;15.35;;;11.80;;
55090;SDS011;40985;53.180;5.800;2023-10-19T12:22:31;11.30;;;10.20;;
55090;SDS011;40985;53.180;5.800;2023-10-19T12:25:03;12.85;;;10.70;;
55090;SDS011;40985;53.180;5.800;2023-10-19T12:27:30;12.95;;;10.55;;
55090;SDS011;40985;53.180;5.800;2023-10-19T12:29:56;11.60;;;10.50;;
55090;SDS011;40985;53.180;5.800;2023-10-19T12:32:24;11.48;;;10.38;;
55090;SDS011;40985;53.180;5.800;2023-10-19T12:34:51;11.40;;;10.23;;
55090;SDS011;40985;53.180;5.800;2023-10-19T12:37:22;11.25;;;9.82;;
55090;SDS011;40985;53.180;5.800;2023-10-19T12:39:49;9.93;;;8.98;;
55090;SDS011;40985;53.180;5.800;2023-10-19T12:42:16;10.10;;;9.07;;
55090;SDS011;40985;53.180;5.800;2023-10-19T12:44:42;9.70;;;8.45;;
55090;SDS011;40985;53.180;5.800;2023-10-19T12:47:08;8.35;;;7.55;;
55090;SDS011;40985;53.180;5.800;2023-10-19T12:49:37;8.85;;;8.05;;
55090;SDS011;40985;53.180;5.800;2023-10-19T12:52:04;8.88;;;7.30;;
55090;SDS011;40985;53.180;5.800;2023-10-19T12:54:32;7.35;;;6.70;;
55090;SDS011;40985;53.180;5.800;2023-10-19T12:57:00;11.70;;;7.85;;
55090;SDS011;40985;53.180;5.800;2023-10-19T12:59:26;8.25;;;7.13;;
55090;SDS011;40985;53.180;5.800;2023-10-19T13:01:51;7.45;;;6.75;;
55090;SDS011;40985;53.180;5.800;2023-10-19T13:04:22;8.45;;;7.30;;
55090;SDS011;40985;53.180;5.800;2023-10-19T13:06:49;8.70;;;7.80;;
55090;SDS011;40985;53.180;5.800;2023-10-19T13:09:22;6.93;;;6.32;;
55090;SDS011;40985;53.180;5.800;2023-10-19T13:11:56;7.53;;;6.82;;
55090;SDS011;40985;53.180;5.800;2023-10-19T13:14:26;7.82;;;6.97;;
55090;SDS011;40985;53.180;5.800;2023-10-19T13:16:52;8.65;;;6.22;;
55090;SDS011;40985;53.180;5.800;2023-10-19T13:19:19;6.72;;;6.03;;
55090;SDS011;40985;53.180;5.800;2023-10-19T13:21:51;8.90;;;7.03;;
55090;SDS011;40985;53.180;5.800;2023-10-19T13:24:18;8.70;;;7.22;;
55090;SDS011;40985;53.180;5.800;2023-10-19T13:26:46;10.55;;;7.72;;
55090;SDS011;40985;53.180;5.800;2023-10-19T13:29:14;9.70;;;8.35;;
55090;SDS011;40985;53.180;5.800;2023-10-19T13:31:40;10.05;;;8.25;;
55090;SDS011;40985;53.180;5.800;2023-10-19T13:34:08;14.45;;;10.07;;
55090;SDS011;40985;53.180;5.800;2023-10-19T13:36:35;19.25;;;9.88;;
55090;SDS011;40985;53.180;5.800;2023-10-19T13:39:02;13.07;;;9.75;;
55090;SDS011;40985;53.180;5.800;2023-10-19T13:41:28;14.75;;;9.68;;
55090;SDS011;40985;53.180;5.800;2023-10-19T13:43:54;15.85;;;10.65;;
55090;SDS011;40985;53.180;5.800;2023-10-19T13:46:20;16.38;;;10.80;;
55090;SDS011;40985;53.180;5.800;2023-10-19T13:48:48;15.45;;;9.90;;
55090;SDS011;40985;53.180;5.800;2023-10-19T13:51:18;17.15;;;10.65;;
55090;SDS011;40985;53.180;5.800;2023-10-19T13:53:47;15.57;;;11.52;;
55090;SDS011;40985;53.180;5.800;2023-10-19T13:56:15;18.05;;;10.75;;
55090;SDS011;40985;53.180;5.800;2023-10-19T13:58:41;19.83;;;12.13;;
55090;SDS011;40985;53.180;5.800;2023-10-19T14:01:07;16.23;;;11.70;;
55090;SDS011;40985;53.180;5.800;2023-10-19T14:03:34;15.80;;;11.90;;
55090;SDS011;40985;53.180;5.800;2023-10-19T14:06:00;17.20;;;11.20;;
55090;SDS011;40985;53.180;5.800;2023-10-19T14:08:25;15.55;;;12.32;;
55090;SDS011;40985;53.180;5.800;2023-10-19T14:10:51;14.38;;;11.38;;
55090;SDS011;40985;53.180;5.800;2023-10-19T14:13:17;19.67;;;13.75;;
55090;SDS011;40985;53.180;5.800;2023-10-19T14:15:43;20.05;;;13.48;;
55090;SDS011;40985;53.180;5.800;2023-10-19T14:18:08;18.27;;;14.90;;
55090;SDS011;40985;53.180;5.800;2023-10-19T14:20:35;20.88;;;14.80;;
55090;SDS011;40985;53.180;5.800;2023-10-19T14:23:04;15.57;;;13.88;;
55090;SDS011;40985;53.180;5.800;2023-10-19T14:25:30;23.20;;;16.00;;
55090;SDS011;40985;53.180;5.800;2023-10-19T14:27:56;22.40;;;15.40;;
55090;SDS011;40985;53.180;5.800;2023-10-19T14:30:25;18.92;;;14.90;;
55090;SDS011;40985;53.180;5.800;2023-10-19T14:32:53;18.77;;;13.13;;
55090;SDS011;40985;53.180;5.800;2023-10-19T14:35:19;21.08;;;13.63;;
55090;SDS011;40985;53.180;5.800;2023-10-19T14:37:47;20.52;;;13.52;;
55090;SDS011;40985;53.180;5.800;2023-10-19T14:40:20;15.57;;;11.10;;
55090;SDS011;40985;53.180;5.800;2023-10-19T14:42:50;19.30;;;12.25;;
55090;SDS011;40985;53.180;5.800;2023-10-19T14:45:21;18.50;;;12.00;;
55090;SDS011;40985;53.180;5.800;2023-10-19T14:47:53;17.05;;;12.82;;
55090;SDS011;40985;53.180;5.800;2023-10-19T14:50:20;15.00;;;10.73;;
55090;SDS011;40985;53.180;5.800;2023-10-19T14:52:48;16.35;;;12.13;;